sensor_id;sensor_type;location;lat;lon;timestamp;pressure;altitude;pressure_sealevel;temperature;humidity
53689;BME280;39583;54.682;30.662;2023-04-19T07:35:26;100113.69;;;14.58;43.43
53689;BME280;39583;54.682;30.662;2023-04-19T07:37:52;100112.72;;;14.83;43.04
53689;BME280;39583;54.682;30.662;2023-04-19T07:40:18;100111.13;;;15.05;42.36
53689;BME280;39583;54.682;30.662;2023-04-19T07:42:44;100106.47;;;15.24;42.58
53689;BME280;39583;54.682;30.662;2023-04-19T07:45:10;100106.69;;;15.46;42.42
53689;BME280;39583;54.682;30.662;2023-04-19T07:47:36;100113.06;;;15.51;41.36
53689;BME280;39583;54.682;30.662;2023-04-19T07:50:02;100096.66;;;15.46;40.82
53689;BME280;39583;54.682;30.662;2023-04-19T07:52:30;100108.34;;;15.58;39.86
53689;BME280;39583;54.682;30.662;2023-04-19T07:54:56;100111.78;;;15.54;38.37
53689;BME280;39583;54.682;30.662;2023-04-19T07:57:22;100108.81;;;15.55;38.15
53689;BME280;39583;54.682;30.662;2023-04-19T07:59:48;100101.88;;;15.59;38.73
53689;BME280;39583;54.682;30.662;2023-04-19T08:02:13;100110.00;;;15.71;38.98
53689;BME280;39583;54.682;30.662;2023-04-19T08:04:40;100105.41;;;15.83;38.66
53689;BME280;39583;54.682;30.662;2023-04-19T08:07:07;100108.94;;;15.84;38.62
53689;BME280;39583;54.682;30.662;2023-04-19T08:09:33;100109.06;;;15.89;38.43
53689;BME280;39583;54.682;30.662;2023-04-19T08:11:59;100111.72;;;16.01;38.57
53689;BME280;39583;54.682;30.662;2023-04-19T08:14:25;100112.19;;;16.09;38.47
53689;BME280;39583;54.682;30.662;2023-04-19T08:16:51;100110.41;;;16.15;37.15
53689;BME280;39583;54.682;30.662;2023-04-19T08:19:17;100103.09;;;16.15;36.60
53689;BME280;39583;54.682;30.662;2023-04-19T08:21:43;100109.94;;;16.18;36.59
53689;BME280;39583;54.682;30.662;2023-04-19T14:28:18;100019.03;;;18.79;26.88
53689;BME280;39583;54.682;30.662;2023-04-19T14:30:44;100016.97;;;18.92;26.37
53689;BME280;39583;54.682;30.662;2023-04-19T14:33:10;100007.97;;;18.96;26.02
53689;BME280;39583;54.682;30.662;2023-04-19T14:35:36;100012.91;;;18.99;26.03
53689;BME280;39583;54.682;30.662;2023-04-19T14:38:02;100016.69;;;18.93;25.69
53689;BME280;39583;54.682;30.662;2023-04-19T14:40:28;100010.31;;;18.82;25.80
53689;BME280;39583;54.682;30.662;2023-04-19T14:42:54;100017.41;;;18.78;25.99
53689;BME280;39583;54.682;30.662;2023-04-19T14:45:20;100007.00;;;18.75;26.19
53689;BME280;39583;54.682;30.662;2023-04-19T14:47:45;100007.47;;;18.67;26.11
53689;BME280;39583;54.682;30.662;2023-04-19T14:50:11;100008.47;;;18.61;26.08
53689;BME280;39583;54.682;30.662;2023-04-19T14:52:37;100013.31;;;18.54;26.24
53689;BME280;39583;54.682;30.662;2023-04-19T14:55:03;100006.97;;;18.48;26.48
53689;BME280;39583;54.682;30.662;2023-04-19T14:57:29;100007.25;;;18.47;26.14
53689;BME280;39583;54.682;30.662;2023-04-19T14:59:56;100001.19;;;18.40;26.20
53689;BME280;39583;54.682;30.662;2023-04-19T15:02:25;100008.19;;;18.31;25.83
53689;BME280;39583;54.682;30.662;2023-04-19T15:04:52;100005.09;;;18.22;25.93
53689;BME280;39583;54.682;30.662;2023-04-19T15:07:18;100006.94;;;18.16;26.05
53689;BME280;39583;54.682;30.662;2023-04-19T15:09:44;100001.69;;;18.10;26.61
53689;BME280;39583;54.682;30.662;2023-04-19T15:12:10;99995.38;;;18.04;26.13
53689;BME280;39583;54.682;30.662;2023-04-19T15:14:37;100007.03;;;18.00;26.03
53689;BME280;39583;54.682;30.662;2023-04-19T15:17:03;100004.81;;;17.96;26.19
53689;BME280;39583;54.682;30.662;2023-04-19T15:19:30;100006.72;;;17.96;26.26
53689;BME280;39583;54.682;30.662;2023-04-19T15:21:56;100003.41;;;17.94;26.68
53689;BME280;39583;54.682;30.662;2023-04-19T15:24:22;99992.72;;;17.87;26.67
53689;BME280;39583;54.682;30.662;2023-04-19T15:26:48;100001.22;;;17.91;26.92
53689;BME280;39583;54.682;30.662;2023-04-19T15:29:14;100001.22;;;17.91;26.98
53689;BME280;39583;54.682;30.662;2023-04-19T15:31:40;99999.31;;;17.91;26.80
53689;BME280;39583;54.682;30.662;2023-04-19T15:34:06;100003.94;;;17.91;27.11
53689;BME280;39583;54.682;30.662;2023-04-19T15:36:33;99991.34;;;17.85;27.29
53689;BME280;39583;54.682;30.662;2023-04-19T15:38:58;100002.56;;;17.88;26.90
53689;BME280;39583;54.682;30.662;2023-04-19T15:41:24;100003.38;;;17.89;27.11
53689;BME280;39583;54.682;30.662;2023-04-19T15:43:50;100000.38;;;17.90;26.89
53689;BME280;39583;54.682;30.662;2023-04-19T15:46:16;100000.66;;;17.89;27.28
53689;BME280;39583;54.682;30.662;2023-04-19T15:48:43;100000.09;;;17.87;26.29
53689;BME280;39583;54.682;30.662;2023-04-19T15:51:11;100000.81;;;17.82;26.44
53689;BME280;39583;54.682;30.662;2023-04-19T15:53:37;99996.72;;;17.80;26.55
53689;BME280;39583;54.682;30.662;2023-04-19T15:56:03;99985.78;;;17.75;26.61
53689;BME280;39583;54.682;30.662;2023-04-19T15:58:30;99996.16;;;17.78;26.87
53689;BME280;39583;54.682;30.662;2023-04-19T16:00:55;100008.38;;;17.75;26.73
53689;BME280;39583;54.682;30.662;2023-04-19T16:03:21;100004.75;;;17.69;27.08
53689;BME280;39583;54.682;30.662;2023-04-19T16:05:47;100002.50;;;17.66;26.99
53689;BME280;39583;54.682;30.662;2023-04-19T16:08:17;100003.69;;;17.71;26.93
53689;BME280;39583;54.682;30.662;2023-04-19T16:10:47;100007.34;;;17.81;27.15
53689;BME280;39583;54.682;30.662;2023-04-19T16:13:14;100017.69;;;17.79;27.23
53689;BME280;39583;54.682;30.662;2023-04-19T16:15:41;100009.25;;;17.59;27.38
53689;BME280;39583;54.682;30.662;2023-04-19T16:18:09;100013.84;;;17.36;27.44
53689;BME280;39583;54.682;30.662;2023-04-19T16:20:36;100017.72;;;17.24;27.76
53689;BME280;39583;54.682;30.662;2023-04-19T16:23:02;100011.53;;;17.28;27.81
53689;BME280;39583;54.682;30.662;2023-04-19T16:25:31;100016.63;;;17.42;27.61
53689;BME280;39583;54.682;30.662;2023-04-19T16:27:58;100022.56;;;17.38;27.50
53689;BME280;39583;54.682;30.662;2023-04-19T16:30:24;100014.91;;;17.19;27.69
53689;BME280;39583;54.682;30.662;2023-04-19T16:32:54;100017.91;;;17.00;27.86
53689;BME280;39583;54.682;30.662;2023-04-19T16:35:21;100021.53;;;16.89;28.04
53689;BME280;39583;54.682;30.662;2023-04-19T16:37:47;100016.19;;;16.77;28.36
53689;BME280;39583;54.682;30.662;2023-04-19T16:40:13;100025.69;;;16.63;28.75
53689;BME280;39583;54.682;30.662;2023-04-19T16:42:39;100015.31;;;16.43;28.71
53689;BME280;39583;54.682;30.662;2023-04-19T16:45:06;100029.28;;;16.35;28.77
53689;BME280;39583;54.682;30.662;2023-04-19T16:47:33;100028.50;;;16.23;28.91
53689;BME280;39583;54.682;30.662;2023-04-19T16:50:00;100025.34;;;16.14;29.00
53689;BME280;39583;54.682;30.662;2023-04-19T16:52:27;100017.16;;;15.98;29.06
53689;BME280;39583;54.682;30.662;2023-04-19T16:54:53;100033.94;;;15.95;29.31
53689;BME280;39583;54.682;30.662;2023-04-19T16:57:19;100037.50;;;15.83;29.36
53689;BME280;39583;54.682;30.662;2023-04-19T16:59:46;100039.66;;;15.70;29.49
53689;BME280;39583;54.682;30.662;2023-04-19T17:02:12;100044.00;;;15.59;29.91
53689;BME280;39583;54.682;30.662;2023-04-19T17:04:38;100043.91;;;15.54;29.96
53689;BME280;39583;54.682;30.662;2023-04-19T17:07:04;100046.41;;;15.44;30.13
53689;BME280;39583;54.682;30.662;2023-04-19T17:09:30;100049.47;;;15.35;30.17
53689;BME280;39583;54.682;30.662;2023-04-19T17:11:56;100048.19;;;15.26;30.23
53689;BME280;39583;54.682;30.662;2023-04-19T17:14:22;100060.34;;;15.24;30.33
53689;BME280;39583;54.682;30.662;2023-04-19T17:16:48;100049.59;;;15.17;30.39
53689;BME280;39583;54.682;30.662;2023-04-19T17:19:15;100058.69;;;15.11;30.66
53689;BME280;39583;54.682;30.662;2023-04-19T17:21:42;100055.81;;;14.94;30.82
53689;BME280;39583;54.682;30.662;2023-04-19T17:24:08;100074.69;;;15.01;30.79
53689;BME280;39583;54.682;30.662;2023-04-19T17:26:34;100067.38;;;14.90;31.08
53689;BME280;39583;54.682;30.662;2023-04-19T17:29:00;100072.88;;;14.83;31.11
53689;BME280;39583;54.682;30.662;2023-04-19T17:31:27;100081.63;;;14.85;31.16
53689;BME280;39583;54.682;30.662;2023-04-19T17:33:54;100078.44;;;14.77;31.36
53689;BME280;39583;54.682;30.662;2023-04-19T17:36:20;100065.63;;;14.54;31.54
53689;BME280;39583;54.682;30.662;2023-04-19T17:38:46;100091.00;;;14.59;31.67
53689;BME280;39583;54.682;30.662;2023-04-19T17:41:12;100090.47;;;14.51;31.78
53689;BME280;39583;54.682;30.662;2023-04-19T17:43:42;100089.66;;;14.50;31.65
53689;BME280;39583;54.682;30.662;2023-04-19T17:46:09;100094.91;;;14.45;31.76
53689;BME280;39583;54.682;30.662;2023-04-19T17:48:35;100104.94;;;14.44;32.02
53689;BME280;39583;54.682;30.662;2023-04-19T17:51:01;100105.59;;;14.40;32.01
53689;BME280;39583;54.682;30.662;2023-04-19T17:53:27;100101.00;;;14.40;32.26
53689;BME280;39583;54.682;30.662;2023-04-19T17:55:53;100100.66;;;14.37;32.17
53689;BME280;39583;54.682;30.662;2023-04-19T17:58:18;100106.19;;;14.42;32.43
53689;BME280;39583;54.682;30.662;2023-04-19T18:00:45;100111.25;;;14.38;32.53
53689;BME280;39583;54.682;30.662;2023-04-19T18:03:11;100112.19;;;14.32;32.45
53689;BME280;39583;54.682;30.662;2023-04-19T18:05:41;100112.25;;;14.26;33.12
53689;BME280;39583;54.682;30.662;2023-04-19T18:08:08;100104.59;;;14.23;32.68
53689;BME280;39583;54.682;30.662;2023-04-19T18:10:34;100109.59;;;14.19;32.70
53689;BME280;39583;54.682;30.662;2023-04-19T18:13:00;100112.53;;;14.17;32.80
53689;BME280;39583;54.682;30.662;2023-04-19T18:15:27;100115.94;;;14.13;32.72
53689;BME280;39583;54.682;30.662;2023-04-19T18:17:53;100122.13;;;14.02;33.15
53689;BME280;39583;54.682;30.662;2023-04-19T18:20:19;100123.41;;;13.99;33.31
53689;BME280;39583;54.682;30.662;2023-04-19T18:22:49;100123.19;;;14.01;33.17
53689;BME280;39583;54.682;30.662;2023-04-19T18:25:17;100125.50;;;13.97;33.13
53689;BME280;39583;54.682;30.662;2023-04-19T18:27:43;100123.78;;;13.84;33.40
53689;BME280;39583;54.682;30.662;2023-04-19T18:30:10;100127.91;;;13.87;33.51
53689;BME280;39583;54.682;30.662;2023-04-19T18:32:36;100124.00;;;13.83;33.60
53689;BME280;39583;54.682;30.662;2023-04-19T18:35:02;100121.53;;;13.81;33.67
53689;BME280;39583;54.682;30.662;2023-04-19T18:37:30;100111.59;;;13.75;33.61
53689;BME280;39583;54.682;30.662;2023-04-19T18:40:05;100128.06;;;13.74;33.95
53689;BME280;39583;54.682;30.662;2023-04-19T18:42:31;100123.97;;;13.65;33.96
53689;BME280;39583;54.682;30.662;2023-04-19T18:44:57;100123.56;;;13.68;34.04
53689;BME280;39583;54.682;30.662;2023-04-19T18:47:26;100132.69;;;13.67;34.30
53689;BME280;39583;54.682;30.662;2023-04-19T18:49:52;100140.66;;;13.62;34.33
53689;BME280;39583;54.682;30.662;2023-04-19T18:52:18;100137.72;;;13.63;34.37
